Time;durP1;ratioP1;P1;durP2;ratioP2;P2;SDS_P1;SDS_P2;PMS_P1;PMS_P2;Temp;Humidity;BMP_temperature;BMP_pressure;BME280_temperature;BME280_humidity;BME280_pressure;Samples;Min_cycle;Max_cycle;Signal;HPM_P1;HPM_P2
2022/10/08 00:00:03;;;;;;;;;10.00;5.33;;;;;16.18;57.52;-19642.13;4995351;27;45556;-71
2022/10/08 00:02:28;;;;;;;;;7.00;5.33;;;;;16.17;57.40;-19641.72;4993178;28;45385;-71
2022/10/08 00:04:54;;;;;;;;;7.00;6.33;;;;;16.23;57.16;-19643.34;4999637;27;45591;-71
2022/10/08 00:07:19;;;;;;;;;6.67;4.67;;;;;16.25;57.24;-19644.00;4995045;27;45405;-71
2022/10/08 00:09:44;;;;;;;;;7.67;5.33;;;;;16.13;57.36;-19640.78;4991193;27;45389;-71
2022/10/08 00:12:10;;;;;;;;;4.00;4.00;;;;;15.93;57.71;-19635.44;4979795;28;45797;-71
2022/10/08 00:14:35;;;;;;;;;8.00;5.33;;;;;16.11;57.67;-19640.25;4993021;27;45524;-71
2022/10/08 00:17:00;;;;;;;;;3.33;3.33;;;;;16.02;57.67;-19637.84;4997850;28;45634;-71
2022/10/08 00:19:26;;;;;;;;;5.00;4.00;;;;;16.11;57.83;-19640.13;4994517;27;45656;-71
2022/10/08 00:21:55;;;;;;;;;3.00;3.00;;;;;16.11;57.28;-19640.13;4978852;28;47504;-71
2022/10/08 00:24:22;;;;;;;;;4.33;3.00;;;;;16.01;57.54;-19637.72;5039431;27;45479;-71
2022/10/08 00:26:47;;;;;;;;;4.00;4.00;;;;;16.12;57.55;-19640.38;4991324;27;45432;-71
2022/10/08 00:29:15;;;;;;;;;3.33;3.33;;;;;16.24;57.53;-19643.72;4994236;28;45375;-71
2022/10/08 00:31:44;;;;;;;;;3.00;3.00;;;;;16.30;57.24;-19645.22;4993815;27;46179;-71
2022/10/08 00:34:11;;;;;;;;;4.00;2.00;;;;;16.31;56.73;-19645.34;4997732;27;45526;-71
2022/10/08 00:36:38;;;;;;;;;5.33;4.00;;;;;16.32;56.89;-19645.59;4993306;27;45500;-71
2022/10/08 00:39:07;;;;;;;;;3.00;3.00;;;;;16.33;56.88;-19646.00;4993861;27;45521;-71
2022/10/08 00:41:37;;;;;;;;;7.67;4.00;;;;;16.31;56.99;-19645.34;4976775;28;47823;-71
2022/10/08 00:44:40;;;;;;;;;3.33;2.00;;;;;16.27;56.98;-19644.28;4998485;27;45527;-71
2022/10/08 00:47:18;;;;;;;;;5.33;3.33;;;;;16.22;56.67;-19643.19;4994861;27;45536;-71
2022/10/08 00:49:48;;;;;;;;;4.33;3.33;;;;;16.30;56.95;-19645.06;4993911;27;45339;-71
2022/10/08 00:52:15;;;;;;;;;2.33;2.33;;;;;16.23;57.16;-19643.47;4975497;28;46322;-71
2022/10/08 00:54:40;;;;;;;;;2.33;2.33;;;;;16.22;57.24;-19643.06;4998449;27;45551;-71
2022/10/08 00:57:07;;;;;;;;;3.00;2.67;;;;;16.18;57.33;-19642.13;5017900;27;45501;-71
2022/10/08 00:59:33;;;;;;;;;2.00;2.00;;;;;16.10;57.37;-19639.97;4993440;27;45574;-71
2022/10/08 01:01:59;;;;;;;;;3.33;3.00;;;;;16.19;57.32;-19642.25;4994330;28;45673;-71
2022/10/08 01:04:25;;;;;;;;;5.00;5.00;;;;;16.17;57.64;-19641.72;4989364;27;45426;-71
2022/10/08 01:06:54;;;;;;;;;6.00;2.33;;;;;16.16;57.47;-19641.47;4984397;27;45326;-71
2022/10/08 01:09:23;;;;;;;;;4.00;3.00;;;;;16.07;57.41;-19639.19;4994530;27;45366;-71
2022/10/08 01:12:06;;;;;;;;;4.00;1.67;;;;;16.09;57.76;-19639.72;4996446;27;47092;-71
2022/10/08 01:14:40;;;;;;;;;3.67;3.00;;;;;16.08;57.86;-19639.31;4991975;27;45504;-71
2022/10/08 01:17:20;;;;;;;;;4.00;4.00;;;;;16.05;57.92;-19638.63;4996232;27;45376;-71
2022/10/08 01:19:51;;;;;;;;;3.67;3.00;;;;;16.06;57.87;-19638.78;4996731;27;45535;-71
2022/10/08 01:22:38;;;;;;;;;3.00;2.67;;;;;15.99;57.88;-19637.16;4997261;27;47159;-71
2022/10/08 01:25:32;;;;;;;;;2.67;2.67;;;;;15.97;58.18;-19636.50;4994579;27;45439;-71
2022/10/08 01:28:12;;;;;;;;;6.00;3.33;;;;;15.98;58.13;-19636.91;4994773;27;45388;-71
2022/10/08 01:30:47;;;;;;;;;3.67;3.67;;;;;15.94;58.46;-19635.69;5004605;27;45597;-71
2022/10/08 01:33:36;;;;;;;;;5.67;4.00;;;;;15.82;58.58;-19632.75;5001528;27;45431;-71
2022/10/08 01:36:04;;;;;;;;;3.67;3.67;;;;;15.87;58.79;-19633.81;4999047;27;45427;-71
2022/10/08 01:38:34;;;;;;;;;5.33;3.67;;;;;15.84;58.56;-19633.16;4994619;27;45547;-71
2022/10/08 01:41:06;;;;;;;;;2.33;2.33;;;;;15.83;59.12;-19633.00;5004033;27;45434;-71
2022/10/08 01:43:36;;;;;;;;;2.00;2.00;;;;;15.83;59.06;-19632.88;4998063;27;47167;-71
2022/10/08 01:46:10;;;;;;;;;1.67;1.67;;;;;15.79;59.14;-19631.94;4998851;27;45427;-71
2022/10/08 01:48:40;;;;;;;;;3.00;1.33;;;;;15.84;59.51;-19633.16;4995849;27;45449;-71
2022/10/08 01:51:16;;;;;;;;;1.33;1.00;;;;;15.80;59.33;-19632.06;5000005;27;45417;-71
2022/10/08 01:53:45;;;;;;;;;3.00;3.00;;;;;15.87;59.62;-19633.81;4995639;27;46527;-71
2022/10/08 01:56:17;;;;;;;;;2.33;2.33;;;;;15.85;59.76;-19633.41;4995898;27;45361;-71
2022/10/08 01:58:50;;;;;;;;;3.67;2.00;;;;;15.83;59.73;-19632.88;4995903;27;45561;-71
2022/10/08 02:01:23;;;;;;;;;3.33;2.00;;;;;15.75;59.95;-19630.72;4994790;27;45540;-71
2022/10/08 02:06:36;;;;;;;;;2.00;2.00;;;;;15.83;59.40;-19632.88;4995521;27;45383;-70
2022/10/08 02:09:03;;;;;;;;;3.00;2.67;;;;;15.84;59.96;-19633.16;4978167;28;45280;-71
2022/10/08 02:11:28;;;;;;;;;3.67;1.67;;;;;15.83;59.88;-19633.00;4995060;27;45540;-71
2022/10/08 02:13:53;;;;;;;;;2.67;2.33;;;;;15.87;59.96;-19633.81;4976596;28;45590;-71
2022/10/08 02:16:28;;;;;;;;;2.67;2.67;;;;;15.90;60.05;-19634.63;4995547;27;45513;-70
2022/10/08 02:19:09;;;;;;;;;1.67;1.67;;;;;15.94;60.31;-19635.81;4995930;27;45430;-70
2022/10/08 02:21:38;;;;;;;;;5.33;3.33;;;;;15.99;60.19;-19637.16;4998619;27;45378;-72
2022/10/08 02:24:20;;;;;;;;;2.00;2.00;;;;;15.97;60.03;-19636.50;4995260;27;45268;-71
2022/10/08 02:26:53;;;;;;;;;1.67;1.67;;;;;16.00;59.90;-19637.44;4994601;27;45404;-71
2022/10/08 02:29:23;;;;;;;;;2.67;2.00;;;;;15.99;60.35;-19637.03;4994396;27;45357;-71
2022/10/08 02:32:05;;;;;;;;;4.00;2.00;;;;;15.95;60.07;-19635.97;4993943;27;45440;-71
2022/10/08 02:35:13;;;;;;;;;7.33;4.00;;;;;15.76;60.49;-19631.00;4977548;28;46014;-71
2022/10/08 02:37:46;;;;;;;;;2.33;1.33;;;;;15.86;60.48;-19633.69;4990599;27;45699;-71
2022/10/08 02:40:16;;;;;;;;;1.67;1.67;;;;;15.80;60.66;-19632.06;4977651;28;45453;-71
2022/10/08 02:42:48;;;;;;;;;2.00;2.00;;;;;15.83;60.67;-19632.88;4986243;27;45318;-71
2022/10/08 02:45:26;;;;;;;;;6.67;2.67;;;;;15.79;60.83;-19631.94;4995655;28;45521;-71
2022/10/08 02:48:00;;;;;;;;;3.00;3.00;;;;;15.82;60.68;-19632.59;4997269;27;45432;-71
2022/10/08 02:50:27;;;;;;;;;0.67;0.00;;;;;15.59;61.31;-19626.72;4990204;27;45568;-70
2022/10/08 02:52:53;;;;;;;;;1.00;1.00;;;;;15.82;61.20;-19632.59;5004102;27;45551;-71
2022/10/08 02:55:40;;;;;;;;;3.33;2.00;;;;;15.79;61.29;-19631.81;5002780;27;45391;-71
2022/10/08 02:58:09;;;;;;;;;0.67;0.67;;;;;15.79;61.51;-19631.81;4994722;27;45453;-71
2022/10/08 03:00:45;;;;;;;;;2.33;1.67;;;;;15.79;61.74;-19631.94;4994389;27;45581;-71
2022/10/08 03:03:17;;;;;;;;;2.33;1.33;;;;;15.86;61.76;-19633.56;4996471;27;45467;-71
2022/10/08 03:05:43;;;;;;;;;1.00;1.00;;;;;15.79;61.69;-19631.94;4994591;27;45444;-71
2022/10/08 03:08:13;;;;;;;;;2.00;0.33;;;;;15.82;61.76;-19632.59;4996207;28;45389;-71
2022/10/08 03:10:40;;;;;;;;;3.33;0.67;;;;;15.84;62.05;-19633.16;4995523;27;45512;-71
2022/10/08 03:13:08;;;;;;;;;0.00;0.00;;;;;15.83;61.67;-19633.00;4988779;28;45514;-71
2022/10/08 03:15:35;;;;;;;;;2.33;1.67;;;;;15.82;61.92;-19632.75;4994379;27;46634;-71
2022/10/08 03:18:06;;;;;;;;;1.00;1.00;;;;;15.90;61.63;-19634.63;4994735;27;45488;-71
2022/10/08 03:20:32;;;;;;;;;0.67;0.67;;;;;15.96;61.63;-19636.22;4990552;27;45433;-71
2022/10/08 03:23:00;;;;;;;;;1.67;1.67;;;;;15.81;61.35;-19632.34;4984439;27;45313;-71
2022/10/08 03:25:25;;;;;;;;;1.00;1.00;;;;;15.95;61.76;-19635.97;4993837;28;46406;-71
2022/10/08 03:27:51;;;;;;;;;2.00;1.00;;;;;15.95;61.21;-19635.97;4996794;27;45612;-71
2022/10/08 03:30:16;;;;;;;;;1.33;1.33;;;;;15.88;61.44;-19634.09;4995576;27;45516;-71
2022/10/08 03:32:42;;;;;;;;;2.33;1.67;;;;;15.94;61.58;-19635.81;5000941;27;45397;-71
2022/10/08 03:35:07;;;;;;;;;1.33;1.33;;;;;15.89;61.58;-19634.34;4996648;27;46033;-71
2022/10/08 03:37:32;;;;;;;;;2.00;1.67;;;;;15.87;61.65;-19633.94;4994516;27;45372;-71
2022/10/08 03:39:58;;;;;;;;;1.00;1.00;;;;;15.84;61.65;-19633.16;4995035;27;45396;-71
2022/10/08 03:42:23;;;;;;;;;3.00;2.00;;;;;15.81;62.16;-19632.34;4977326;28;45343;-71
2022/10/08 03:44:48;;;;;;;;;3.33;3.00;;;;;15.73;61.89;-19630.19;4998776;27;47158;-71
2022/10/08 03:47:14;;;;;;;;;7.33;3.00;;;;;15.63;62.17;-19627.63;5008264;27;45440;-71
2022/10/08 03:49:40;;;;;;;;;2.00;2.00;;;;;15.77;62.15;-19631.41;5001886;27;45277;-71
2022/10/08 03:52:05;;;;;;;;;3.67;1.67;;;;;15.80;62.23;-19632.22;5000978;27;45282;-71
2022/10/08 03:54:33;;;;;;;;;1.67;1.67;;;;;15.90;62.55;-19634.63;4980877;28;48024;-71
2022/10/08 03:56:58;;;;;;;;;2.00;2.00;;;;;15.83;62.81;-19633.00;4998990;27;45448;-71
2022/10/08 03:59:24;;;;;;;;;2.00;2.00;;;;;15.83;63.14;-19632.88;4995646;27;45431;-71
2022/10/08 04:01:49;;;;;;;;;4.67;2.33;;;;;15.75;63.39;-19630.88;4985639;27;45598;-71
2022/10/08 04:04:14;;;;;;;;;2.33;1.00;;;;;15.86;63.45;-19633.56;4976726;28;46356;-71
2022/10/08 04:06:40;;;;;;;;;3.00;2.00;;;;;15.82;63.38;-19632.75;4993760;28;45511;-71
2022/10/08 04:09:05;;;;;;;;;2.33;1.67;;;;;15.86;63.70;-19633.69;4995470;27;45494;-71
2022/10/08 04:11:31;;;;;;;;;4.00;1.67;;;;;15.80;63.94;-19632.06;4991361;27;45499;-71
2022/10/08 04:13:56;;;;;;;;;2.00;2.00;;;;;15.76;64.30;-19631.00;4989056;28;45935;-71
2022/10/08 04:16:21;;;;;;;;;1.00;1.00;;;;;15.68;64.02;-19628.84;4993869;27;45481;-71
2022/10/08 04:18:47;;;;;;;;;1.67;1.67;;;;;15.80;64.17;-19632.22;4997550;27;45421;-71
2022/10/08 04:21:16;;;;;;;;;1.67;1.67;;;;;15.80;64.36;-19632.22;4993327;27;45540;-71
2022/10/08 04:23:42;;;;;;;;;2.67;1.33;;;;;15.81;64.00;-19632.47;4982620;28;48503;-71
2022/10/08 04:26:10;;;;;;;;;3.33;1.00;;;;;15.79;64.41;-19631.94;4989997;28;45689;-71
2022/10/08 04:28:37;;;;;;;;;2.33;1.33;;;;;15.78;64.48;-19631.66;4994059;28;45620;-71
2022/10/08 04:31:04;;;;;;;;;3.33;1.67;;;;;15.66;64.77;-19628.44;4992542;27;45399;-71
2022/10/08 04:33:31;;;;;;;;;6.33;3.00;;;;;15.61;65.28;-19627.25;4993841;27;45259;-71
2022/10/08 04:35:57;;;;;;;;;9.00;5.00;;;;;15.50;65.25;-19624.16;4997124;27;45338;-71
2022/10/08 04:38:23;;;;;;;;;6.00;4.00;;;;;15.68;65.58;-19628.84;4957158;28;45329;-71
2022/10/08 04:41:06;;;;;;;;;6.00;5.33;;;;;15.89;65.13;-19634.34;4988867;27;45492;-71
2022/10/08 04:43:33;;;;;;;;;7.33;6.33;;;;;15.90;65.08;-19634.63;4993368;27;46374;-71
2022/10/08 04:45:58;;;;;;;;;8.00;8.00;;;;;15.76;65.33;-19631.13;4993355;28;45410;-71
2022/10/08 04:48:24;;;;;;;;;8.33;5.33;;;;;15.69;65.80;-19629.25;4982034;28;45370;-70
2022/10/08 04:50:56;;;;;;;;;7.67;6.67;;;;;15.76;65.56;-19631.13;4996896;27;45401;-70
2022/10/08 04:53:24;;;;;;;;;7.67;6.67;;;;;15.81;65.20;-19632.47;5021384;27;45486;-74
2022/10/08 04:55:50;;;;;;;;;5.67;5.67;;;;;15.87;65.31;-19633.94;4997429;27;45440;-75
2022/10/08 04:58:15;;;;;;;;;8.33;7.00;;;;;15.79;65.20;-19631.94;4977538;27;45400;-75
2022/10/08 05:00:41;;;;;;;;;5.00;5.00;;;;;15.84;65.33;-19633.16;4982815;27;45315;-75
2022/10/08 05:03:06;;;;;;;;;7.67;5.67;;;;;15.83;65.49;-19632.88;4987459;27;45447;-75
2022/10/08 05:05:31;;;;;;;;;5.00;5.00;;;;;15.81;65.35;-19632.34;4995967;27;51447;-76
2022/10/08 05:07:57;;;;;;;;;7.67;5.33;;;;;15.79;65.95;-19631.81;4995964;27;45394;-75
2022/10/08 05:10:23;;;;;;;;;6.33;4.00;;;;;15.74;65.52;-19630.59;5000898;27;45388;-75
2022/10/08 05:12:49;;;;;;;;;5.00;3.67;;;;;15.73;65.76;-19630.19;4981756;27;46170;-75
2022/10/08 05:15:14;;;;;;;;;6.33;1.67;;;;;15.73;66.50;-19630.19;4995972;27;45389;-75
2022/10/08 05:17:39;;;;;;;;;7.33;2.67;;;;;15.74;66.25;-19630.47;4996441;27;45319;-76
2022/10/08 05:20:05;;;;;;;;;1.00;0.67;;;;;15.67;66.27;-19628.72;4979245;28;45257;-75
2022/10/08 05:22:31;;;;;;;;;2.00;2.00;;;;;15.67;66.50;-19628.72;4992263;27;47314;-75
2022/10/08 05:24:56;;;;;;;;;3.00;1.67;;;;;15.71;66.17;-19629.66;4994502;27;45329;-75
2022/10/08 05:27:21;;;;;;;;;0.67;0.67;;;;;15.71;66.41;-19629.66;4999880;27;45325;-75
2022/10/08 05:29:47;;;;;;;;;1.00;1.00;;;;;15.69;66.62;-19629.13;5003321;27;45558;-76
2022/10/08 05:32:12;;;;;;;;;0.67;0.67;;;;;15.69;66.69;-19629.13;5024598;27;45559;-75
2022/10/08 05:34:37;;;;;;;;;1.00;1.00;;;;;15.70;66.81;-19629.38;5013747;27;45427;-77
2022/10/08 05:37:03;;;;;;;;;1.00;1.00;;;;;15.67;66.75;-19628.59;5006552;27;45552;-74
2022/10/08 05:39:28;;;;;;;;;0.67;0.67;;;;;15.68;66.72;-19628.97;5003362;27;45501;-75
2022/10/08 05:41:53;;;;;;;;;2.00;0.67;;;;;15.66;66.79;-19628.44;4998284;27;47377;-74
2022/10/08 05:44:19;;;;;;;;;0.00;0.00;;;;;15.64;66.49;-19627.91;4990866;27;45855;-75
2022/10/08 05:46:44;;;;;;;;;0.67;0.67;;;;;15.66;66.97;-19628.44;4965465;28;45333;-75
2022/10/08 05:49:21;;;;;;;;;1.00;1.00;;;;;15.62;67.01;-19627.50;5001942;27;45518;-75
2022/10/08 05:51:47;;;;;;;;;0.00;0.00;;;;;15.63;67.45;-19627.78;4998086;27;45372;-76
2022/10/08 05:54:13;;;;;;;;;0.67;0.00;;;;;15.61;67.53;-19627.09;4986674;27;45523;-75
2022/10/08 05:56:38;;;;;;;;;2.33;1.00;;;;;15.52;67.43;-19624.69;4983560;27;45718;-75
2022/10/08 05:59:04;;;;;;;;;1.00;1.00;;;;;15.55;67.85;-19625.63;4976373;27;45410;-75
2022/10/08 06:01:31;;;;;;;;;2.00;1.00;;;;;15.55;68.00;-19625.50;4993714;28;46063;-75
2022/10/08 06:04:02;;;;;;;;;1.00;1.00;;;;;15.53;67.74;-19624.97;4980054;28;45565;-75
2022/10/08 06:06:28;;;;;;;;;3.33;0.67;;;;;15.47;67.92;-19623.34;4974463;28;45515;-75
2022/10/08 06:08:55;;;;;;;;;2.67;1.67;;;;;15.46;68.08;-19623.09;4989086;27;45539;-75
2022/10/08 06:11:21;;;;;;;;;2.00;2.00;;;;;15.50;67.88;-19624.28;4995644;27;46416;-75
2022/10/08 06:13:46;;;;;;;;;1.00;1.00;;;;;15.40;68.19;-19621.59;5001536;27;45371;-75
2022/10/08 06:16:11;;;;;;;;;3.33;0.67;;;;;15.48;68.23;-19623.75;5004211;27;45529;-75
2022/10/08 06:18:39;;;;;;;;;3.00;2.33;;;;;15.48;68.15;-19623.75;5002643;27;45473;-75
2022/10/08 06:21:11;;;;;;;;;2.00;2.00;;;;;15.46;68.36;-19623.22;4992436;27;45420;-75
2022/10/08 06:23:38;;;;;;;;;3.67;1.67;;;;;15.32;68.38;-19619.47;4977948;28;45490;-75
2022/10/08 06:26:06;;;;;;;;;4.33;1.67;;;;;15.46;68.48;-19623.22;5001204;27;45547;-75
2022/10/08 06:28:34;;;;;;;;;2.33;0.67;;;;;15.47;68.38;-19623.34;5002837;27;45412;-75
2022/10/08 06:30:59;;;;;;;;;3.33;2.33;;;;;15.40;68.50;-19621.75;5000835;27;46285;-75
2022/10/08 06:33:26;;;;;;;;;3.00;2.33;;;;;15.48;69.00;-19623.75;4988480;28;45682;-77
2022/10/08 06:35:51;;;;;;;;;2.33;2.33;;;;;15.46;68.51;-19623.09;4998252;27;45492;-76
2022/10/08 06:38:17;;;;;;;;;3.67;1.67;;;;;15.30;68.54;-19619.06;4977876;27;45672;-76
2022/10/08 06:40:42;;;;;;;;;2.33;2.33;;;;;15.35;68.41;-19620.25;4978755;27;46247;-77
2022/10/08 06:43:26;;;;;;;;;2.67;2.67;;;;;15.26;68.81;-19617.84;4996742;27;45430;-76
2022/10/08 06:45:52;;;;;;;;;1.33;1.33;;;;;15.44;68.61;-19622.69;5007620;28;45479;-76
2022/10/08 06:48:18;;;;;;;;;3.00;3.00;;;;;15.46;68.85;-19623.22;4998992;27;45350;-76
2022/10/08 06:50:45;;;;;;;;;1.67;1.67;;;;;15.45;69.20;-19622.81;4994412;27;47058;-77
2022/10/08 06:53:10;;;;;;;;;4.33;2.67;;;;;15.40;69.32;-19621.75;4977144;27;45766;-74
2022/10/08 06:55:36;;;;;;;;;5.33;3.33;;;;;15.50;69.43;-19624.16;5010716;27;45764;-70
2022/10/08 06:58:04;;;;;;;;;3.00;3.00;;;;;15.50;69.45;-19624.16;5008514;28;45433;-70
2022/10/08 07:00:30;;;;;;;;;3.00;3.00;;;;;15.52;69.59;-19624.81;4996764;27;45540;-69
2022/10/08 07:02:56;;;;;;;;;3.67;3.67;;;;;15.53;69.63;-19625.09;5000589;27;45497;-70
2022/10/08 07:05:22;;;;;;;;;3.67;3.00;;;;;15.52;69.88;-19624.69;5003645;27;45715;-70
2022/10/08 07:07:47;;;;;;;;;2.00;2.00;;;;;15.55;69.60;-19625.50;5007179;27;45518;-70
2022/10/08 07:10:13;;;;;;;;;3.33;1.67;;;;;15.62;70.17;-19627.38;5009118;27;45541;-70
2022/10/08 07:12:38;;;;;;;;;5.00;2.00;;;;;15.68;70.02;-19628.97;5000641;27;45516;-70
2022/10/08 07:15:04;;;;;;;;;6.00;2.00;;;;;15.59;70.28;-19626.56;4984573;28;45449;-71
2022/10/08 07:17:29;;;;;;;;;3.00;2.33;;;;;15.46;70.61;-19623.09;4986433;28;45405;-71
2022/10/08 07:19:55;;;;;;;;;2.67;2.67;;;;;15.74;70.13;-19630.47;5019545;27;45911;-71
2022/10/08 07:22:21;;;;;;;;;3.00;3.00;;;;;15.67;70.38;-19628.59;5013798;28;45599;-71
2022/10/08 07:24:47;;;;;;;;;6.67;2.67;;;;;15.83;70.22;-19632.88;5021070;27;45792;-72
2022/10/08 07:27:13;;;;;;;;;2.33;2.33;;;;;15.88;70.36;-19634.09;5037390;27;45338;-72
2022/10/08 07:29:38;;;;;;;;;6.33;2.67;;;;;15.93;69.90;-19635.44;4994567;27;47342;-71
2022/10/08 07:32:03;;;;;;;;;4.67;3.33;;;;;15.90;70.29;-19634.75;5012516;27;45531;-69
2022/10/08 07:34:29;;;;;;;;;7.00;3.00;;;;;16.07;69.91;-19639.19;5020285;27;45481;-71
2022/10/08 07:36:54;;;;;;;;;4.33;3.00;;;;;16.11;70.11;-19640.13;4996223;28;45440;-72
2022/10/08 07:39:20;;;;;;;;;5.33;4.00;;;;;16.13;69.88;-19640.78;5001988;27;45440;-71
2022/10/08 07:41:47;;;;;;;;;3.67;3.67;;;;;16.29;69.68;-19644.81;4992503;28;45299;-73
2022/10/08 07:44:14;;;;;;;;;3.67;3.33;;;;;16.36;69.80;-19646.69;5015961;27;45370;-72
2022/10/08 07:46:48;;;;;;;;;3.00;3.00;;;;;16.42;69.45;-19648.28;4995525;27;45400;-72
2022/10/08 07:49:14;;;;;;;;;5.33;3.33;;;;;16.35;69.54;-19646.53;4993566;27;46332;-72
2022/10/08 07:51:40;;;;;;;;;2.33;2.33;;;;;16.53;69.10;-19651.25;4982486;28;45467;-71
2022/10/08 07:54:09;;;;;;;;;5.67;4.00;;;;;16.49;69.03;-19650.16;4978084;28;45864;-74
2022/10/08 07:56:35;;;;;;;;;5.00;5.00;;;;;16.65;69.11;-19654.44;4988553;27;45573;-72
2022/10/08 07:59:02;;;;;;;;;9.00;5.00;;;;;16.60;68.86;-19653.13;4984012;28;46070;-71
2022/10/08 08:01:28;;;;;;;;;4.33;4.33;;;;;16.72;68.63;-19656.06;4985554;28;45559;-70
2022/10/08 08:03:57;;;;;;;;;6.33;4.00;;;;;16.83;68.22;-19659.16;4991632;27;45535;-71
2022/10/08 08:06:23;;;;;;;;;4.00;4.00;;;;;16.75;68.94;-19656.88;4990133;27;45481;-71
2022/10/08 08:08:49;;;;;;;;;3.00;3.00;;;;;16.78;68.24;-19657.78;4996326;27;46605;-72
2022/10/08 08:11:16;;;;;;;;;4.00;4.00;;;;;16.82;68.59;-19658.75;4990979;28;45487;-73
2022/10/08 08:13:42;;;;;;;;;4.33;3.67;;;;;17.01;68.35;-19663.81;4990576;27;45417;-73
2022/10/08 08:16:16;;;;;;;;;4.00;4.00;;;;;17.12;67.60;-19666.50;4989296;27;45348;-73
2022/10/08 08:18:44;;;;;;;;;5.67;4.67;;;;;17.15;67.96;-19667.31;4999391;27;46217;-73
2022/10/08 08:21:15;;;;;;;;;4.67;4.67;;;;;17.27;67.72;-19670.53;4989772;28;45988;-74
2022/10/08 08:23:43;;;;;;;;;4.67;4.67;;;;;17.19;67.81;-19668.38;4990584;28;47034;-74
2022/10/08 08:26:31;;;;;;;;;5.33;5.00;;;;;17.06;67.44;-19665.16;4990381;27;47726;-73
2022/10/08 08:28:59;;;;;;;;;4.00;4.00;;;;;17.23;68.03;-19669.59;4984594;27;46126;-73
2022/10/08 08:31:28;;;;;;;;;4.67;4.67;;;;;17.23;68.19;-19669.59;4989017;27;45563;-73
2022/10/08 08:33:56;;;;;;;;;0.00;0.00;;;;;17.34;67.65;-19672.25;4992562;27;45536;-72
2022/10/08 08:36:37;;;;;;;;;8.00;3.67;;;;;17.39;67.89;-19673.59;5013074;27;45462;-72
2022/10/08 08:39:03;;;;;;;;;5.00;3.33;;;;;17.54;67.92;-19677.47;4991488;28;45506;-73
2022/10/08 08:42:00;;;;;;;;;7.67;5.33;;;;;17.60;67.02;-19679.22;4974784;28;45481;-73
2022/10/08 08:44:35;;;;;;;;;3.33;3.33;;;;;17.59;67.32;-19678.94;5014876;27;47097;-74
2022/10/08 08:47:04;;;;;;;;;3.67;3.67;;;;;17.78;66.87;-19683.91;4986787;27;45535;-74
2022/10/08 08:50:00;;;;;;;;;5.67;4.00;;;;;17.77;66.63;-19683.63;5000094;28;46203;-73
2022/10/08 08:52:32;;;;;;;;;5.33;4.00;;;;;17.92;66.41;-19687.50;5017771;27;45693;-73
2022/10/08 08:54:59;;;;;;;;;4.67;4.00;;;;;18.04;65.78;-19690.72;4995130;27;45545;-76
2022/10/08 08:57:31;;;;;;;;;4.00;3.00;;;;;18.06;65.53;-19691.13;4999723;27;45437;-76
2022/10/08 09:00:03;;;;;;;;;2.33;2.33;;;;;18.16;66.11;-19693.66;5005942;27;45647;-76
2022/10/08 09:02:34;;;;;;;;;2.67;2.00;;;;;18.21;65.25;-19695.00;5012023;27;45500;-76
2022/10/08 09:05:06;;;;;;;;;1.00;1.00;;;;;18.23;64.89;-19695.53;4987752;27;45587;-76
2022/10/08 09:07:44;;;;;;;;;2.67;1.33;;;;;18.38;65.10;-19699.56;4973290;27;45544;-77
2022/10/08 09:10:17;;;;;;;;;2.00;2.00;;;;;18.49;64.21;-19702.47;5010247;27;48223;-76
2022/10/08 09:12:43;;;;;;;;;5.00;2.00;;;;;18.70;64.25;-19707.84;5000542;27;45513;-75
2022/10/08 09:15:31;;;;;;;;;1.00;1.00;;;;;18.74;63.99;-19708.91;4994487;27;45529;-75
2022/10/08 09:18:01;;;;;;;;;1.00;1.00;;;;;18.94;63.17;-19714.13;5002172;28;45449;-75
2022/10/08 09:20:26;;;;;;;;;3.67;1.00;;;;;18.91;63.37;-19713.44;4986843;28;45535;-74
2022/10/08 09:22:53;;;;;;;;;2.00;2.00;;;;;18.98;61.99;-19715.19;4997576;27;45548;-78
2022/10/08 09:25:25;;;;;;;;;121.75;63.50;;;;;19.29;62.19;-19723.19;4990622;28;45463;-78
2022/10/08 09:28:02;;;;;;;;;6.00;2.00;;;;;19.96;60.90;-19740.69;4978034;27;45617;-75
2022/10/08 09:30:40;;;;;;;;;0.00;0.00;;;;;20.96;58.99;-19766.81;4988928;27;45490;-77
2022/10/08 09:33:11;;;;;;;;;1.00;1.00;;;;;22.84;55.82;-19815.50;5041339;27;45409;-75
2022/10/08 09:35:43;;;;;;;;;1.00;1.00;;;;;24.53;52.13;-19859.44;5006311;27;45436;-76
2022/10/08 09:38:22;;;;;;;;;1.00;1.00;;;;;26.66;48.83;-19914.50;4989387;28;45585;-75
2022/10/08 09:41:15;;;;;;;;;1.25;1.25;;;;;28.52;43.94;-19962.44;4997969;27;46508;-72
2022/10/08 09:43:41;;;;;;;;;4.50;1.50;;;;;30.44;40.59;-20011.66;4984192;28;45835;-75
2022/10/08 09:46:25;;;;;;;;;1.25;1.25;;;;;31.03;39.65;-20026.91;4979977;28;45490;-77
2022/10/08 09:48:51;;;;;;;;;1.25;1.00;;;;;31.36;38.22;-17981.09;4990459;28;45420;-75
2022/10/08 09:51:17;;;;;;;;;3.00;1.75;;;;;31.39;36.99;-15243.88;4981354;28;47297;-75
2022/10/08 09:53:53;;;;;;;;;0.00;0.00;;;;;31.68;36.52;-11479.50;4998612;27;45683;-73
2022/10/08 09:56:26;;;;;;;;;2.75;2.00;;;;;31.01;35.26;-5301.22;5001417;27;45527;-78
2022/10/08 09:59:01;;;;;;;;;1.25;1.25;;;;;31.01;35.16;-3242.34;4980109;28;46015;-78
2022/10/08 10:01:30;;;;;;;;;1.00;1.00;;;;;31.60;34.83;-2554.75;4994333;28;45475;-80
2022/10/08 10:03:59;;;;;;;;;3.00;1.00;;;;;32.13;33.82;4481.22;4988664;27;45520;-80
2022/10/08 10:06:32;;;;;;;;;0.75;0.75;;;;;31.27;33.77;15364.03;4980615;27;45391;-80
2022/10/08 10:09:09;;;;;;;;;4.00;2.50;;;;;30.59;35.10;13997.50;5000302;28;45645;-79
2022/10/08 10:11:47;;;;;;;;;1.00;1.00;;;;;30.68;34.72;15895.84;4988953;27;47708;-78
2022/10/08 10:14:21;;;;;;;;;1.00;1.00;;;;;29.58;35.03;20497.34;4997121;27;46088;-77
2022/10/08 10:16:52;;;;;;;;;0.25;0.25;;;;;28.77;35.77;21590.56;4995710;27;45624;-81
2022/10/08 10:19:23;;;;;;;;;0.00;0.00;;;;;28.27;36.12;21057.56;4988328;27;45534;-79
2022/10/08 10:22:00;;;;;;;;;0.00;0.00;;;;;27.55;36.59;22028.16;4993846;27;45529;-77
2022/10/08 10:24:36;;;;;;;;;0.00;0.00;;;;;26.73;37.51;23166.56;5009459;27;45416;-77
2022/10/08 10:27:15;;;;;;;;;1.25;1.25;;;;;25.90;38.01;21666.78;5023098;27;45519;-76
2022/10/08 10:29:59;;;;;;;;;0.00;0.00;;;;;26.11;39.32;12973.06;5002430;27;45547;-77
2022/10/08 10:32:40;;;;;;;;;2.75;2.75;;;;;26.61;38.11;16720.97;4999005;27;46235;-78
2022/10/08 10:35:14;;;;;;;;;1.75;0.25;;;;;27.20;37.60;15692.38;4998085;27;45638;-79
2022/10/08 10:37:48;;;;;;;;;0.00;0.00;;;;;28.66;36.25;14086.19;4995344;27;46671;-80
2022/10/08 10:40:34;;;;;;;;;0.25;0.25;;;;;29.45;35.02;18864.50;4982564;28;45635;-81
2022/10/08 10:43:33;;;;;;;;;0.00;0.00;;;;;29.66;34.07;23126.38;4977969;27;48016;-80
2022/10/08 10:46:37;;;;;;;;;4.25;4.25;;;;;30.86;33.30;23978.81;4979632;28;45721;-80
2022/10/08 10:49:16;;;;;;;;;5.75;4.75;;;;;31.66;32.34;27640.63;4990242;27;45650;-81
2022/10/08 10:52:06;;;;;;;;;2.25;2.25;;;;;32.27;31.46;30152.09;4991033;27;45790;-78
2022/10/08 10:54:59;;;;;;;;;1.00;0.00;;;;;33.30;29.73;34712.97;4983958;27;46286;-81
2022/10/08 10:57:49;;;;;;;;;1.00;1.00;;;;;33.71;29.19;39687.78;4975904;27;46104;-78
2022/10/08 11:00:41;;;;;;;;;0.00;0.00;;;;;34.34;28.27;41802.81;5044981;27;45427;-79
2022/10/08 11:03:30;;;;;;;;;1.00;0.00;;;;;35.01;28.05;43625.72;5025182;27;45445;-79
2022/10/08 11:06:08;;;;;;;;;0.50;0.50;;;;;35.68;26.55;45305.56;4997686;27;46046;-81
2022/10/08 11:08:42;;;;;;;;;0.00;0.00;;;;;36.33;25.50;47579.19;4997380;27;46103;-81
2022/10/08 11:11:19;;;;;;;;;0.00;0.00;;;;;36.83;25.38;48760.41;4970198;28;45546;-77
2022/10/08 11:13:50;;;;;;;;;0.25;0.25;;;;;37.27;24.34;50564.06;4996301;28;45595;-83
2022/10/08 11:16:28;;;;;;;;;0.00;0.00;;;;;37.57;24.35;51702.97;4984428;27;46995;-76
2022/10/08 11:18:57;;;;;;;;;1.00;0.00;;;;;37.72;23.69;53598.94;4987084;27;45553;-75
2022/10/08 11:21:49;;;;;;;;;2.25;2.25;;;;;36.78;23.58;57202.47;4985001;28;45637;-75
2022/10/08 11:24:33;;;;;;;;;0.00;0.00;;;;;36.35;24.10;58208.16;4984630;27;45646;-76
2022/10/08 11:27:55;;;;;;;;;0.25;0.25;;;;;36.01;23.66;59484.97;4983471;28;47219;-78
2022/10/08 11:30:29;;;;;;;;;1.00;0.00;;;;;35.25;23.28;60808.72;5032117;28;45895;-75
2022/10/08 11:32:56;;;;;;;;;1.00;1.00;;;;;35.30;24.26;60843.59;5035601;28;46155;-77
2022/10/08 11:35:32;;;;;;;;;11.67;11.00;;;;;35.56;23.89;60655.53;5030660;28;45736;-76
2022/10/08 11:38:15;;;;;;;;;0.00;0.00;;;;;35.80;23.48;60512.44;5029769;28;46287;-74
2022/10/08 11:40:52;;;;;;;;;5.25;0.50;;;;;36.05;23.66;60609.78;5025270;28;45497;-76
2022/10/08 11:43:32;;;;;;;;;0.00;0.00;;;;;36.04;23.58;61059.34;5026848;28;45598;-75
2022/10/08 11:46:11;;;;;;;;;1.50;0.50;;;;;35.85;23.10;61531.19;5032424;28;45497;-75